sensor_id;sensor_type;location;lat;lon;timestamp;P1;durP1;ratioP1;P2;durP2;ratioP2
30824;SDS011;17550;45.486;12.222;2023-04-01T00:02:10;84.07;;;53.08;;
30824;SDS011;17550;45.486;12.222;2023-04-01T00:04:36;86.47;;;53.40;;
30824;SDS011;17550;45.486;12.222;2023-04-01T00:07:02;93.53;;;58.75;;
30824;SDS011;17550;45.486;12.222;2023-04-01T00:09:27;87.40;;;56.97;;
30824;SDS011;17550;45.486;12.222;2023-04-01T00:11:53;90.05;;;56.40;;
30824;SDS011;17550;45.486;12.222;2023-04-01T00:14:19;86.18;;;56.30;;
30824;SDS011;17550;45.486;12.222;2023-04-01T00:16:45;90.15;;;57.05;;
30824;SDS011;17550;45.486;12.222;2023-04-01T00:19:10;87.22;;;55.22;;
30824;SDS011;17550;45.486;12.222;2023-04-01T00:21:36;91.47;;;57.35;;
30824;SDS011;17550;45.486;12.222;2023-04-01T00:24:02;90.70;;;56.70;;
30824;SDS011;17550;45.486;12.222;2023-04-01T00:26:27;87.03;;;55.00;;
30824;SDS011;17550;45.486;12.222;2023-04-01T00:28:53;91.70;;;57.15;;
30824;SDS011;17550;45.486;12.222;2023-04-01T00:31:19;89.20;;;55.78;;
30824;SDS011;17550;45.486;12.222;2023-04-01T00:33:45;84.88;;;54.17;;
30824;SDS011;17550;45.486;12.222;2023-04-01T00:36:14;88.90;;;55.13;;
30824;SDS011;17550;45.486;12.222;2023-04-01T00:38:42;85.63;;;53.15;;
30824;SDS011;17550;45.486;12.222;2023-04-01T00:41:09;88.00;;;54.40;;
30824;SDS011;17550;45.486;12.222;2023-04-01T00:43:39;90.93;;;54.25;;
30824;SDS011;17550;45.486;12.222;2023-04-01T00:46:06;84.90;;;53.95;;
30824;SDS011;17550;45.486;12.222;2023-04-01T00:48:36;86.20;;;55.05;;
30824;SDS011;17550;45.486;12.222;2023-04-01T00:51:05;89.38;;;56.55;;
30824;SDS011;17550;45.486;12.222;2023-04-01T00:53:40;87.82;;;55.03;;
30824;SDS011;17550;45.486;12.222;2023-04-01T00:56:13;88.80;;;55.60;;
30824;SDS011;17550;45.486;12.222;2023-04-01T00:58:41;89.05;;;55.22;;
30824;SDS011;17550;45.486;12.222;2023-04-01T01:01:13;97.32;;;59.00;;
30824;SDS011;17550;45.486;12.222;2023-04-01T01:03:40;107.82;;;64.57;;
30824;SDS011;17550;45.486;12.222;2023-04-01T01:09:14;111.47;;;67.18;;
30824;SDS011;17550;45.486;12.222;2023-04-01T01:19:53;111.93;;;65.18;;
30824;SDS011;17550;45.486;12.222;2023-04-01T01:31:00;107.10;;;62.17;;
30824;SDS011;17550;45.486;12.222;2023-04-01T01:36:42;106.72;;;62.10;;
30824;SDS011;17550;45.486;12.222;2023-04-01T01:39:10;113.28;;;66.88;;
30824;SDS011;17550;45.486;12.222;2023-04-01T01:41:38;116.55;;;70.45;;
30824;SDS011;17550;45.486;12.222;2023-04-01T01:44:08;106.97;;;66.03;;
30824;SDS011;17550;45.486;12.222;2023-04-01T01:46:36;106.35;;;66.30;;
30824;SDS011;17550;45.486;12.222;2023-04-01T01:49:04;103.18;;;65.20;;
30824;SDS011;17550;45.486;12.222;2023-04-01T01:51:32;117.55;;;70.95;;
30824;SDS011;17550;45.486;12.222;2023-04-01T01:53:59;106.82;;;68.07;;
30824;SDS011;17550;45.486;12.222;2023-04-01T01:56:25;109.35;;;68.00;;
30824;SDS011;17550;45.486;12.222;2023-04-01T01:59:03;108.00;;;70.10;;
30824;SDS011;17550;45.486;12.222;2023-04-01T02:01:34;119.82;;;72.95;;
30824;SDS011;17550;45.486;12.222;2023-04-01T02:04:03;104.68;;;64.38;;
30824;SDS011;17550;45.486;12.222;2023-04-01T02:06:30;113.10;;;67.53;;
30824;SDS011;17550;45.486;12.222;2023-04-01T02:09:00;105.85;;;63.83;;
30824;SDS011;17550;45.486;12.222;2023-04-01T02:14:04;127.40;;;74.45;;
30824;SDS011;17550;45.486;12.222;2023-04-01T02:16:53;113.43;;;69.68;;
30824;SDS011;17550;45.486;12.222;2023-04-01T02:19:21;113.43;;;71.47;;
30824;SDS011;17550;45.486;12.222;2023-04-01T02:21:57;121.65;;;70.97;;
30824;SDS011;17550;45.486;12.222;2023-04-01T02:24:27;116.55;;;71.15;;
30824;SDS011;17550;45.486;12.222;2023-04-01T02:26:56;107.60;;;67.28;;
30824;SDS011;17550;45.486;12.222;2023-04-01T02:29:22;112.53;;;70.32;;
30824;SDS011;17550;45.486;12.222;2023-04-01T02:31:50;111.07;;;66.85;;
30824;SDS011;17550;45.486;12.222;2023-04-01T02:34:17;117.03;;;69.45;;
30824;SDS011;17550;45.486;12.222;2023-04-01T02:36:43;116.03;;;70.70;;
30824;SDS011;17550;45.486;12.222;2023-04-01T02:39:09;105.65;;;68.47;;
30824;SDS011;17550;45.486;12.222;2023-04-01T02:41:41;113.95;;;70.80;;
30824;SDS011;17550;45.486;12.222;2023-04-01T02:44:10;106.03;;;66.47;;
30824;SDS011;17550;45.486;12.222;2023-04-01T02:46:37;111.40;;;71.00;;
30824;SDS011;17550;45.486;12.222;2023-04-01T02:49:02;113.38;;;71.45;;
30824;SDS011;17550;45.486;12.222;2023-04-01T02:51:29;118.72;;;72.55;;
30824;SDS011;17550;45.486;12.222;2023-04-01T02:53:55;127.13;;;78.07;;
30824;SDS011;17550;45.486;12.222;2023-04-01T02:56:21;125.57;;;78.35;;
30824;SDS011;17550;45.486;12.222;2023-04-01T02:58:47;120.57;;;76.20;;
30824;SDS011;17550;45.486;12.222;2023-04-01T03:01:13;126.55;;;76.22;;
30824;SDS011;17550;45.486;12.222;2023-04-01T03:03:39;122.18;;;77.20;;
30824;SDS011;17550;45.486;12.222;2023-04-01T03:06:06;121.20;;;74.43;;
30824;SDS011;17550;45.486;12.222;2023-04-01T03:08:36;123.38;;;72.35;;
30824;SDS011;17550;45.486;12.222;2023-04-01T03:11:01;119.75;;;73.30;;
30824;SDS011;17550;45.486;12.222;2023-04-01T03:13:28;121.30;;;73.80;;
30824;SDS011;17550;45.486;12.222;2023-04-01T03:15:54;119.75;;;73.38;;
30824;SDS011;17550;45.486;12.222;2023-04-01T03:18:20;119.13;;;74.05;;
30824;SDS011;17550;45.486;12.222;2023-04-01T03:20:46;121.55;;;75.68;;
30824;SDS011;17550;45.486;12.222;2023-04-01T03:23:12;121.57;;;74.28;;
30824;SDS011;17550;45.486;12.222;2023-04-01T03:25:38;130.35;;;80.28;;
30824;SDS011;17550;45.486;12.222;2023-04-01T03:28:04;142.30;;;84.47;;
30824;SDS011;17550;45.486;12.222;2023-04-01T03:30:30;125.47;;;72.72;;
30824;SDS011;17550;45.486;12.222;2023-04-01T03:32:56;114.60;;;71.72;;
30824;SDS011;17550;45.486;12.222;2023-04-01T03:35:22;129.18;;;76.18;;
30824;SDS011;17550;45.486;12.222;2023-04-01T03:37:50;123.50;;;72.68;;
30824;SDS011;17550;45.486;12.222;2023-04-01T03:40:17;124.80;;;75.90;;
30824;SDS011;17550;45.486;12.222;2023-04-01T03:42:43;109.25;;;69.13;;
30824;SDS011;17550;45.486;12.222;2023-04-01T03:45:09;112.53;;;69.18;;
30824;SDS011;17550;45.486;12.222;2023-04-01T03:47:36;116.32;;;70.93;;
30824;SDS011;17550;45.486;12.222;2023-04-01T03:50:03;110.90;;;70.32;;
30824;SDS011;17550;45.486;12.222;2023-04-01T03:52:29;121.38;;;73.55;;
30824;SDS011;17550;45.486;12.222;2023-04-01T03:54:55;105.13;;;66.05;;
30824;SDS011;17550;45.486;12.222;2023-04-01T03:57:21;107.00;;;68.18;;
30824;SDS011;17550;45.486;12.222;2023-04-01T03:59:47;115.90;;;69.22;;
30824;SDS011;17550;45.486;12.222;2023-04-01T04:02:12;111.53;;;70.13;;
30824;SDS011;17550;45.486;12.222;2023-04-01T04:04:38;114.47;;;71.25;;
30824;SDS011;17550;45.486;12.222;2023-04-01T04:07:03;118.70;;;72.85;;
30824;SDS011;17550;45.486;12.222;2023-04-01T04:09:30;112.20;;;70.00;;
30824;SDS011;17550;45.486;12.222;2023-04-01T04:11:56;114.50;;;69.55;;
30824;SDS011;17550;45.486;12.222;2023-04-01T04:14:23;118.53;;;72.43;;
30824;SDS011;17550;45.486;12.222;2023-04-01T04:16:48;110.10;;;70.90;;
30824;SDS011;17550;45.486;12.222;2023-04-01T04:19:14;110.30;;;68.20;;
30824;SDS011;17550;45.486;12.222;2023-04-01T04:21:40;109.45;;;69.47;;
30824;SDS011;17550;45.486;12.222;2023-04-01T04:24:07;110.00;;;68.30;;
30824;SDS011;17550;45.486;12.222;2023-04-01T04:26:33;111.63;;;67.25;;
30824;SDS011;17550;45.486;12.222;2023-04-01T04:28:59;105.03;;;63.83;;
30824;SDS011;17550;45.486;12.222;2023-04-01T04:31:26;112.38;;;66.88;;
30824;SDS011;17550;45.486;12.222;2023-04-01T04:33:53;99.30;;;66.18;;
30824;SDS011;17550;45.486;12.222;2023-04-01T04:36:19;88.97;;;60.08;;
30824;SDS011;17550;45.486;12.222;2023-04-01T04:38:46;91.57;;;58.67;;
30824;SDS011;17550;45.486;12.222;2023-04-01T04:41:12;86.60;;;57.05;;
30824;SDS011;17550;45.486;12.222;2023-04-01T04:43:40;96.18;;;59.13;;
30824;SDS011;17550;45.486;12.222;2023-04-01T04:46:06;98.82;;;60.63;;
30824;SDS011;17550;45.486;12.222;2023-04-01T04:48:33;86.97;;;59.08;;
30824;SDS011;17550;45.486;12.222;2023-04-01T04:50:59;89.85;;;56.92;;
30824;SDS011;17550;45.486;12.222;2023-04-01T04:53:25;94.18;;;59.53;;
30824;SDS011;17550;45.486;12.222;2023-04-01T04:55:52;83.80;;;57.28;;
30824;SDS011;17550;45.486;12.222;2023-04-01T04:58:18;82.97;;;53.95;;
30824;SDS011;17550;45.486;12.222;2023-04-01T05:00:44;92.28;;;59.42;;
30824;SDS011;17550;45.486;12.222;2023-04-01T05:03:10;83.57;;;54.30;;
30824;SDS011;17550;45.486;12.222;2023-04-01T05:05:37;80.60;;;52.95;;
30824;SDS011;17550;45.486;12.222;2023-04-01T05:08:03;88.97;;;56.25;;
30824;SDS011;17550;45.486;12.222;2023-04-01T05:10:29;88.68;;;55.80;;
30824;SDS011;17550;45.486;12.222;2023-04-01T05:12:56;83.60;;;52.20;;
30824;SDS011;17550;45.486;12.222;2023-04-01T05:15:23;85.10;;;54.08;;
30824;SDS011;17550;45.486;12.222;2023-04-01T05:17:50;89.32;;;54.28;;
30824;SDS011;17550;45.486;12.222;2023-04-01T05:20:16;80.38;;;53.13;;
30824;SDS011;17550;45.486;12.222;2023-04-01T05:22:42;87.43;;;55.45;;
30824;SDS011;17550;45.486;12.222;2023-04-01T05:25:08;84.95;;;54.60;;
30824;SDS011;17550;45.486;12.222;2023-04-01T05:27:34;88.68;;;55.83;;
30824;SDS011;17550;45.486;12.222;2023-04-01T05:30:00;82.45;;;56.15;;
30824;SDS011;17550;45.486;12.222;2023-04-01T05:32:26;82.82;;;55.17;;
30824;SDS011;17550;45.486;12.222;2023-04-01T05:34:52;80.38;;;53.45;;
30824;SDS011;17550;45.486;12.222;2023-04-01T05:37:18;80.68;;;55.53;;
30824;SDS011;17550;45.486;12.222;2023-04-01T05:39:45;86.47;;;55.45;;
30824;SDS011;17550;45.486;12.222;2023-04-01T05:42:11;82.70;;;54.45;;
30824;SDS011;17550;45.486;12.222;2023-04-01T05:44:37;80.55;;;54.85;;
30824;SDS011;17550;45.486;12.222;2023-04-01T05:47:03;79.40;;;52.90;;
30824;SDS011;17550;45.486;12.222;2023-04-01T05:49:32;81.32;;;53.70;;
30824;SDS011;17550;45.486;12.222;2023-04-01T05:51:58;79.80;;;52.63;;
30824;SDS011;17550;45.486;12.222;2023-04-01T05:54:24;78.50;;;51.00;;
30824;SDS011;17550;45.486;12.222;2023-04-01T05:56:50;73.28;;;49.55;;
30824;SDS011;17550;45.486;12.222;2023-04-01T05:59:15;78.40;;;53.40;;
30824;SDS011;17550;45.486;12.222;2023-04-01T06:01:41;72.20;;;51.70;;
30824;SDS011;17550;45.486;12.222;2023-04-01T06:04:09;77.22;;;51.10;;
30824;SDS011;17550;45.486;12.222;2023-04-01T06:06:38;76.67;;;50.90;;
30824;SDS011;17550;45.486;12.222;2023-04-01T06:09:15;73.40;;;49.45;;
30824;SDS011;17550;45.486;12.222;2023-04-01T06:22:24;65.07;;;46.30;;
30824;SDS011;17550;45.486;12.222;2023-04-01T06:27:55;68.53;;;47.35;;
30824;SDS011;17550;45.486;12.222;2023-04-01T06:46:47;69.63;;;49.05;;
30824;SDS011;17550;45.486;12.222;2023-04-01T06:54:47;81.53;;;52.08;;
30824;SDS011;17550;45.486;12.222;2023-04-01T06:59:45;87.03;;;55.22;;
30824;SDS011;17550;45.486;12.222;2023-04-01T07:04:58;87.53;;;54.35;;
30824;SDS011;17550;45.486;12.222;2023-04-01T07:07:30;94.35;;;55.40;;
30824;SDS011;17550;45.486;12.222;2023-04-01T07:10:13;100.00;;;58.80;;
30824;SDS011;17550;45.486;12.222;2023-04-01T07:12:44;95.38;;;54.83;;
30824;SDS011;17550;45.486;12.222;2023-04-01T07:18:05;88.72;;;52.38;;
30824;SDS011;17550;45.486;12.222;2023-04-01T07:20:41;84.60;;;53.70;;
30824;SDS011;17550;45.486;12.222;2023-04-01T07:23:19;81.65;;;49.97;;
30824;SDS011;17550;45.486;12.222;2023-04-01T07:25:53;74.80;;;49.28;;
30824;SDS011;17550;45.486;12.222;2023-04-01T07:28:23;72.28;;;47.83;;
30824;SDS011;17550;45.486;12.222;2023-04-01T07:33:55;77.53;;;48.08;;
30824;SDS011;17550;45.486;12.222;2023-04-01T07:36:54;69.40;;;45.42;;
30824;SDS011;17550;45.486;12.222;2023-04-01T07:39:37;74.53;;;46.65;;
30824;SDS011;17550;45.486;12.222;2023-04-01T07:50:31;66.70;;;42.53;;
30824;SDS011;17550;45.486;12.222;2023-04-01T08:01:13;53.15;;;32.53;;
30824;SDS011;17550;45.486;12.222;2023-04-01T08:07:20;51.25;;;32.60;;
30824;SDS011;17550;45.486;12.222;2023-04-01T08:09:40;51.50;;;33.65;;
30824;SDS011;17550;45.486;12.222;2023-04-01T08:20:47;51.90;;;32.25;;
30824;SDS011;17550;45.486;12.222;2023-04-01T08:23:22;58.03;;;35.55;;
30824;SDS011;17550;45.486;12.222;2023-04-01T08:31:53;43.85;;;29.30;;
30824;SDS011;17550;45.486;12.222;2023-04-01T08:34:04;41.45;;;28.15;;
30824;SDS011;17550;45.486;12.222;2023-04-01T08:36:46;51.75;;;33.22;;
30824;SDS011;17550;45.486;12.222;2023-04-01T08:39:43;50.13;;;31.33;;
30824;SDS011;17550;45.486;12.222;2023-04-01T08:50:58;34.78;;;24.52;;
30824;SDS011;17550;45.486;12.222;2023-04-01T08:53:35;36.15;;;23.85;;
30824;SDS011;17550;45.486;12.222;2023-04-01T08:56:52;39.20;;;24.50;;
30824;SDS011;17550;45.486;12.222;2023-04-01T08:59:30;37.83;;;25.50;;
30824;SDS011;17550;45.486;12.222;2023-04-01T09:07:40;36.15;;;22.88;;
30824;SDS011;17550;45.486;12.222;2023-04-01T09:15:49;27.05;;;18.17;;
30824;SDS011;17550;45.486;12.222;2023-04-01T09:27:14;29.08;;;19.13;;
30824;SDS011;17550;45.486;12.222;2023-04-01T09:35:42;33.45;;;20.40;;
30824;SDS011;17550;45.486;12.222;2023-04-01T09:40:58;33.42;;;22.25;;
30824;SDS011;17550;45.486;12.222;2023-04-01T09:44:01;34.47;;;23.00;;
30824;SDS011;17550;45.486;12.222;2023-04-01T09:46:33;39.75;;;23.98;;
30824;SDS011;17550;45.486;12.222;2023-04-01T09:51:53;37.17;;;23.30;;
30824;SDS011;17550;45.486;12.222;2023-04-01T11:19:20;28.42;;;18.27;;
30824;SDS011;17550;45.486;12.222;2023-04-01T11:31:04;25.38;;;18.55;;
30824;SDS011;17550;45.486;12.222;2023-04-01T11:37:06;22.85;;;15.30;;
30824;SDS011;17550;45.486;12.222;2023-04-01T11:42:34;33.22;;;18.85;;
30824;SDS011;17550;45.486;12.222;2023-04-01T11:45:06;21.23;;;15.75;;
30824;SDS011;17550;45.486;12.222;2023-04-01T11:56:34;27.92;;;16.98;;
30824;SDS011;17550;45.486;12.222;2023-04-01T12:02:11;24.88;;;17.05;;
30824;SDS011;17550;45.486;12.222;2023-04-01T12:07:32;27.33;;;16.20;;
30824;SDS011;17550;45.486;12.222;2023-04-01T12:10:17;27.02;;;17.58;;
30824;SDS011;17550;45.486;12.222;2023-04-01T12:13:14;25.70;;;16.97;;
30824;SDS011;17550;45.486;12.222;2023-04-01T12:55:51;18.23;;;10.32;;
30824;SDS011;17550;45.486;12.222;2023-04-01T13:01:29;19.63;;;10.05;;
30824;SDS011;17550;45.486;12.222;2023-04-01T13:12:59;13.25;;;9.13;;
30824;SDS011;17550;45.486;12.222;2023-04-01T13:18:11;16.15;;;9.95;;
30824;SDS011;17550;45.486;12.222;2023-04-01T13:29:18;13.40;;;8.35;;
30824;SDS011;17550;45.486;12.222;2023-04-01T13:34:47;13.68;;;7.78;;
30824;SDS011;17550;45.486;12.222;2023-04-01T13:37:37;15.68;;;7.80;;
30824;SDS011;17550;45.486;12.222;2023-04-01T13:46:12;14.75;;;10.00;;
30824;SDS011;17550;45.486;12.222;2023-04-01T13:52:08;16.60;;;9.45;;
30824;SDS011;17550;45.486;12.222;2023-04-01T14:03:17;18.20;;;11.63;;
30824;SDS011;17550;45.486;12.222;2023-04-01T14:06:14;20.92;;;11.25;;
30824;SDS011;17550;45.486;12.222;2023-04-01T14:14:21;15.88;;;11.63;;
30824;SDS011;17550;45.486;12.222;2023-04-01T14:50:29;22.17;;;15.83;;
30824;SDS011;17550;45.486;12.222;2023-04-01T14:55:59;31.63;;;18.35;;
30824;SDS011;17550;45.486;12.222;2023-04-01T14:58:46;27.65;;;17.77;;
30824;SDS011;17550;45.486;12.222;2023-04-01T15:04:26;26.93;;;17.13;;
30824;SDS011;17550;45.486;12.222;2023-04-01T15:24:25;30.13;;;21.27;;
30824;SDS011;17550;45.486;12.222;2023-04-01T15:39:05;28.48;;;18.65;;
30824;SDS011;17550;45.486;12.222;2023-04-01T15:47:41;26.63;;;17.63;;
30824;SDS011;17550;45.486;12.222;2023-04-01T15:55:59;26.58;;;18.08;;
30824;SDS011;17550;45.486;12.222;2023-04-01T16:20:17;22.90;;;15.38;;
30824;SDS011;17550;45.486;12.222;2023-04-01T16:30:38;28.27;;;14.90;;
30824;SDS011;17550;45.486;12.222;2023-04-01T16:33:22;22.40;;;15.40;;
30824;SDS011;17550;45.486;12.222;2023-04-01T16:44:50;26.38;;;14.50;;
30824;SDS011;17550;45.486;12.222;2023-04-01T16:47:30;25.42;;;15.57;;
30824;SDS011;17550;45.486;12.222;2023-04-01T16:50:15;21.92;;;16.17;;
30824;SDS011;17550;45.486;12.222;2023-04-01T16:55:18;21.33;;;15.52;;
30824;SDS011;17550;45.486;12.222;2023-04-01T16:57:50;25.88;;;14.95;;
30824;SDS011;17550;45.486;12.222;2023-04-01T17:00:28;27.95;;;16.50;;
30824;SDS011;17550;45.486;12.222;2023-04-01T17:03:22;23.60;;;15.35;;
30824;SDS011;17550;45.486;12.222;2023-04-01T17:35:40;31.67;;;19.98;;
30824;SDS011;17550;45.486;12.222;2023-04-01T17:38:40;28.25;;;17.85;;
30824;SDS011;17550;45.486;12.222;2023-04-01T17:41:28;29.52;;;17.65;;
30824;SDS011;17550;45.486;12.222;2023-04-01T17:49:45;26.17;;;15.85;;
30824;SDS011;17550;45.486;12.222;2023-04-01T18:01:02;26.42;;;17.52;;
30824;SDS011;17550;45.486;12.222;2023-04-01T18:22:56;44.55;;;26.35;;
30824;SDS011;17550;45.486;12.222;2023-04-01T18:25:39;43.03;;;24.63;;
30824;SDS011;17550;45.486;12.222;2023-04-01T18:36:24;60.72;;;34.75;;
30824;SDS011;17550;45.486;12.222;2023-04-01T18:39:12;51.40;;;33.25;;
30824;SDS011;17550;45.486;12.222;2023-04-01T18:42:07;57.42;;;36.38;;
30824;SDS011;17550;45.486;12.222;2023-04-01T18:47:56;59.15;;;35.97;;
30824;SDS011;17550;45.486;12.222;2023-04-01T18:50:30;64.80;;;39.25;;
30824;SDS011;17550;45.486;12.222;2023-04-01T18:53:24;69.70;;;40.47;;
30824;SDS011;17550;45.486;12.222;2023-04-01T18:56:05;65.82;;;41.70;;
30824;SDS011;17550;45.486;12.222;2023-04-01T19:03:43;70.97;;;43.65;;
30824;SDS011;17550;45.486;12.222;2023-04-01T19:06:17;74.28;;;42.97;;
30824;SDS011;17550;45.486;12.222;2023-04-01T19:08:52;71.32;;;42.30;;
30824;SDS011;17550;45.486;12.222;2023-04-01T19:11:36;70.95;;;43.60;;
30824;SDS011;17550;45.486;12.222;2023-04-01T19:17:14;67.78;;;42.67;;
30824;SDS011;17550;45.486;12.222;2023-04-01T19:31:51;68.05;;;42.00;;
30824;SDS011;17550;45.486;12.222;2023-04-01T19:34:35;69.50;;;41.47;;
30824;SDS011;17550;45.486;12.222;2023-04-01T19:37:18;66.95;;;40.20;;
30824;SDS011;17550;45.486;12.222;2023-04-01T19:40:06;61.53;;;39.40;;
30824;SDS011;17550;45.486;12.222;2023-04-01T19:50:53;54.42;;;34.63;;
30824;SDS011;17550;45.486;12.222;2023-04-01T19:53:31;59.00;;;36.50;;
30824;SDS011;17550;45.486;12.222;2023-04-01T19:58:45;52.03;;;34.33;;
30824;SDS011;17550;45.486;12.222;2023-04-01T20:01:20;60.95;;;35.85;;
30824;SDS011;17550;45.486;12.222;2023-04-01T20:14:26;50.25;;;30.92;;
30824;SDS011;17550;45.486;12.222;2023-04-01T20:17:19;53.40;;;32.42;;
30824;SDS011;17550;45.486;12.222;2023-04-01T20:22:27;61.22;;;36.08;;
30824;SDS011;17550;45.486;12.222;2023-04-01T20:25:01;59.15;;;36.85;;
30824;SDS011;17550;45.486;12.222;2023-04-01T21:08:20;110.13;;;63.00;;
30824;SDS011;17550;45.486;12.222;2023-04-01T21:40:43;100.72;;;55.35;;
30824;SDS011;17550;45.486;12.222;2023-04-01T21:43:39;91.00;;;53.92;;
30824;SDS011;17550;45.486;12.222;2023-04-01T22:05:34;92.70;;;54.47;;
30824;SDS011;17550;45.486;12.222;2023-04-01T22:08:29;91.68;;;54.50;;
30824;SDS011;17550;45.486;12.222;2023-04-01T22:19:06;91.30;;;51.30;;
30824;SDS011;17550;45.486;12.222;2023-04-01T22:25:36;89.15;;;52.03;;
30824;SDS011;17550;45.486;12.222;2023-04-01T22:27:55;85.22;;;51.72;;
30824;SDS011;17550;45.486;12.222;2023-04-01T22:30:53;85.13;;;51.78;;
30824;SDS011;17550;45.486;12.222;2023-04-01T22:43:55;87.55;;;49.33;;
30824;SDS011;17550;45.486;12.222;2023-04-01T22:49:07;78.20;;;46.67;;
30824;SDS011;17550;45.486;12.222;2023-04-01T22:57:04;75.60;;;46.17;;
30824;SDS011;17550;45.486;12.222;2023-04-01T23:02:12;68.72;;;43.30;;
30824;SDS011;17550;45.486;12.222;2023-04-01T23:04:42;71.55;;;43.88;;
30824;SDS011;17550;45.486;12.222;2023-04-01T23:07:19;71.53;;;44.92;;
30824;SDS011;17550;45.486;12.222;2023-04-01T23:09:49;77.00;;;44.90;;
30824;SDS011;17550;45.486;12.222;2023-04-01T23:12:16;75.65;;;46.50;;
30824;SDS011;17550;45.486;12.222;2023-04-01T23:14:49;74.50;;;46.80;;
30824;SDS011;17550;45.486;12.222;2023-04-01T23:20:12;87.47;;;49.15;;
30824;SDS011;17550;45.486;12.222;2023-04-01T23:25:45;89.90;;;52.33;;
30824;SDS011;17550;45.486;12.222;2023-04-01T23:28:44;93.20;;;52.10;;
30824;SDS011;17550;45.486;12.222;2023-04-01T23:36:42;94.22;;;53.35;;
30824;SDS011;17550;45.486;12.222;2023-04-01T23:41:45;93.43;;;55.22;;
30824;SDS011;17550;45.486;12.222;2023-04-01T23:44:11;95.93;;;53.40;;
30824;SDS011;17550;45.486;12.222;2023-04-01T23:46:39;98.97;;;56.08;;
30824;SDS011;17550;45.486;12.222;2023-04-01T23:49:15;87.07;;;51.30;;
30824;SDS011;17550;45.486;12.222;2023-04-01T23:51:58;99.05;;;52.88;;
30824;SDS011;17550;45.486;12.222;2023-04-01T23:55:15;94.55;;;52.10;;
30824;SDS011;17550;45.486;12.222;2023-04-01T23:57:59;96.18;;;51.45;;
